createdAt,value
2022-10-24T00:01:54.014Z,1.20
2022-10-24T00:04:56.635Z,1.45
2022-10-24T00:07:59.205Z,1.30
2022-10-24T00:11:01.720Z,1.27
2022-10-24T00:14:04.337Z,1.08
2022-10-24T00:17:08.262Z,1.35
2022-10-24T00:20:11.537Z,1.17
2022-10-24T00:23:14.528Z,1.48
2022-10-24T00:26:17.628Z,1.05
2022-10-24T00:29:20.319Z,1.45
2022-10-24T00:32:24.822Z,1.75
2022-10-24T00:35:27.460Z,1.25
2022-10-24T00:38:30.058Z,1.60
2022-10-24T00:41:34.747Z,1.30
2022-10-24T00:44:38.735Z,1.23
2022-10-24T00:47:42.990Z,1.27
2022-10-24T00:50:48.092Z,1.13
2022-10-24T00:53:51.900Z,1.23
2022-10-24T00:56:59.302Z,1.40
2022-10-24T01:00:05.022Z,1.08
2022-10-24T01:03:11.051Z,0.90
2022-10-24T01:06:29.037Z,1.10
2022-10-24T01:09:39.412Z,1.27
2022-10-24T01:12:47.966Z,1.02
2022-10-24T01:15:52.604Z,1.20
2022-10-24T01:19:02.048Z,1.23
2022-10-24T01:22:06.739Z,1.17
2022-10-24T01:25:12.991Z,1.10
2022-10-24T01:28:17.093Z,1.10
2022-10-24T01:31:25.628Z,1.30
2022-10-24T01:34:31.351Z,1.20
2022-10-24T01:37:37.729Z,1.02
2022-10-24T01:40:42.424Z,1.38
2022-10-24T01:43:47.199Z,1.35
2022-10-24T01:46:53.233Z,1.30
2022-10-24T01:50:06.673Z,1.13
2022-10-24T01:53:09.965Z,1.00
2022-10-24T01:56:12.550Z,1.08
2022-10-24T01:59:30.382Z,1.00
2022-10-24T02:02:38.556Z,1.42
2022-10-24T02:05:43.332Z,1.35
2022-10-24T02:08:48.572Z,0.95
2022-10-24T02:11:52.549Z,1.15
2022-10-24T02:14:57.964Z,1.30
2022-10-24T02:18:02.405Z,1.20
2022-10-24T02:21:08.918Z,1.10
2022-10-24T02:24:15.255Z,1.05
2022-10-24T02:27:19.599Z,1.08
2022-10-24T02:30:23.387Z,1.02
2022-10-24T02:33:28.365Z,1.10
2022-10-24T02:36:32.407Z,1.10
2022-10-24T02:39:36.312Z,0.98
2022-10-24T02:42:39.892Z,0.80
2022-10-24T02:45:42.518Z,1.00
2022-10-24T02:48:48.257Z,1.80
2022-10-24T02:51:51.792Z,1.20
2022-10-24T02:54:54.462Z,1.08
2022-10-24T02:57:57.069Z,1.10
2022-10-24T03:01:00.328Z,0.88
2022-10-24T03:04:04.465Z,1.38
2022-10-24T03:07:07.733Z,1.17
2022-10-24T03:10:10.392Z,1.08
2022-10-24T03:13:13.195Z,0.95
2022-10-24T03:16:15.966Z,1.08
2022-10-24T03:19:19.937Z,1.23
2022-10-24T03:22:22.580Z,1.10
2022-10-24T03:25:25.094Z,1.40
2022-10-24T03:28:27.536Z,1.27
2022-10-24T03:31:31.555Z,1.20
2022-10-24T03:34:35.359Z,1.30
2022-10-24T03:37:39.788Z,1.35
2022-10-24T03:40:42.899Z,1.27
2022-10-24T03:43:45.432Z,1.20
2022-10-24T03:46:48.388Z,0.90
2022-10-24T03:49:50.958Z,1.10
2022-10-24T03:52:54.881Z,1.20
2022-10-24T03:55:57.960Z,0.85
2022-10-24T03:59:00.561Z,1.45
2022-10-24T04:02:03.842Z,1.13
2022-10-24T04:05:06.907Z,1.17
2022-10-24T04:08:10.884Z,1.70
2022-10-24T04:11:13.804Z,1.05
2022-10-24T04:14:16.287Z,1.33
2022-10-24T04:17:19.168Z,1.17
2022-10-24T04:20:23.056Z,1.48
2022-10-24T04:23:27.212Z,1.20
2022-10-24T04:26:29.891Z,1.20
2022-10-24T04:29:32.550Z,1.05
2022-10-24T04:32:35.173Z,1.02
2022-10-24T04:35:37.707Z,0.93
2022-10-24T04:38:41.591Z,1.60
2022-10-24T04:41:44.105Z,1.15
2022-10-24T04:44:47.734Z,1.38
2022-10-24T04:47:50.304Z,1.25
2022-10-24T04:50:53.501Z,1.50
2022-10-24T04:53:57.382Z,1.20
2022-10-24T04:56:59.889Z,1.60
2022-10-24T05:00:02.798Z,1.40
2022-10-24T05:03:05.629Z,1.83
2022-10-24T05:06:08.983Z,2.88
2022-10-24T05:09:12.946Z,5.78
2022-10-24T05:12:15.571Z,3.10
2022-10-24T05:15:18.829Z,2.00
2022-10-24T05:18:22.493Z,1.40
2022-10-24T05:21:25.262Z,1.50
2022-10-24T05:24:30.257Z,1.50
2022-10-24T05:27:32.955Z,1.67
2022-10-24T05:30:36.036Z,2.17
2022-10-24T05:33:38.668Z,2.03
2022-10-24T05:36:41.483Z,1.63
2022-10-24T05:39:45.524Z,1.90
2022-10-24T05:42:48.719Z,1.70
2022-10-24T05:48:59.017Z,1.17
2022-10-24T05:52:01.623Z,1.38
2022-10-24T05:55:08.211Z,1.40
2022-10-24T05:58:11.355Z,1.50
2022-10-24T06:01:14.130Z,1.40
2022-10-24T06:04:16.901Z,1.50
2022-10-24T06:07:19.668Z,1.65
2022-10-24T06:10:25.210Z,1.60
2022-10-24T06:13:30.370Z,1.05
2022-10-24T06:16:35.887Z,1.10
2022-10-24T06:19:38.818Z,1.08
2022-10-24T06:22:42.260Z,1.98
2022-10-24T06:25:46.466Z,1.58
2022-10-24T06:28:48.988Z,1.52
2022-10-24T06:31:51.463Z,1.48
2022-10-24T06:34:54.010Z,1.00
2022-10-24T06:37:57.281Z,0.77
2022-10-24T06:41:06.396Z,1.35
2022-10-24T06:44:11.076Z,1.60
2022-10-24T06:47:13.882Z,1.90
2022-10-24T06:50:21.524Z,2.58
2022-10-24T06:53:26.338Z,1.55
2022-10-24T06:56:30.411Z,1.23
2022-10-24T06:59:33.835Z,1.45
2022-10-24T07:02:36.623Z,1.42
2022-10-24T07:05:39.262Z,1.30
2022-10-24T07:08:42.835Z,1.60
2022-10-24T07:11:48.355Z,1.45
2022-10-24T07:14:52.397Z,1.38
2022-10-24T07:17:55.808Z,1.60
2022-10-24T07:21:02.546Z,1.33
2022-10-24T07:24:05.522Z,1.15
2022-10-24T07:27:09.468Z,1.23
2022-10-24T07:30:16.186Z,1.60
2022-10-24T07:33:18.769Z,1.58
2022-10-24T07:36:22.537Z,1.55
2022-10-24T07:39:25.099Z,1.33
2022-10-24T07:42:30.066Z,1.25
2022-10-24T07:45:33.455Z,1.50
2022-10-24T07:48:36.679Z,1.23
2022-10-24T07:51:39.242Z,1.48
2022-10-24T07:54:41.796Z,1.48
2022-10-24T07:57:46.138Z,1.58
2022-10-24T08:00:49.023Z,1.50
2022-10-24T08:03:51.700Z,1.40
2022-10-24T08:06:54.291Z,1.33
2022-10-24T08:09:56.852Z,1.27
2022-10-24T08:13:01.285Z,1.63
2022-10-24T08:16:05.897Z,1.17
2022-10-24T08:19:08.824Z,1.75
2022-10-24T08:22:11.752Z,1.52
2022-10-24T08:25:14.570Z,1.20
2022-10-24T08:28:18.490Z,1.30
2022-10-24T08:31:21.915Z,1.50
2022-10-24T08:34:24.717Z,1.65
2022-10-24T08:37:27.331Z,1.58
2022-10-24T08:40:30.250Z,1.75
2022-10-24T08:43:34.461Z,1.35
2022-10-24T08:46:48.961Z,1.35
2022-10-24T08:49:56.305Z,1.77
2022-10-24T08:53:02.587Z,1.80
2022-10-24T08:56:05.696Z,1.40
2022-10-24T08:59:11.224Z,1.25
2022-10-24T09:02:16.629Z,1.42
2022-10-24T09:05:22.629Z,1.45
2022-10-24T09:08:30.605Z,1.42
2022-10-24T09:11:39.952Z,1.30
2022-10-24T09:14:45.546Z,1.50
2022-10-24T09:17:48.685Z,1.25
2022-10-24T09:20:52.012Z,2.70
2022-10-24T09:23:55.399Z,1.52
2022-10-24T09:27:00.718Z,1.40
2022-10-24T09:30:06.389Z,1.40
2022-10-24T09:33:23.670Z,1.30
2022-10-24T09:36:30.355Z,1.00
2022-10-24T09:39:34.660Z,1.50
2022-10-24T09:42:38.874Z,1.33
2022-10-24T09:45:43.866Z,1.38
2022-10-24T09:48:50.484Z,1.15
2022-10-24T09:52:02.210Z,1.40
2022-10-24T09:55:07.643Z,1.17
2022-10-24T09:58:18.465Z,1.13
2022-10-24T10:01:23.074Z,1.08
2022-10-24T10:04:25.922Z,1.60
2022-10-24T10:07:29.570Z,1.05
2022-10-24T10:10:33.716Z,1.20
2022-10-24T10:13:41.098Z,1.20
2022-10-24T10:16:45.849Z,0.88
2022-10-24T10:19:49.031Z,1.20
2022-10-24T10:22:51.736Z,1.05
2022-10-24T10:26:15.070Z,1.27
2022-10-24T10:29:22.682Z,1.33
2022-10-24T10:32:31.087Z,1.17
2022-10-24T10:35:39.381Z,1.30
2022-10-24T10:38:49.226Z,1.33
2022-10-24T10:41:58.252Z,0.93
2022-10-24T10:45:07.713Z,1.67
2022-10-24T10:48:20.782Z,1.33
2022-10-24T10:51:29.491Z,0.93
2022-10-24T10:54:45.711Z,1.10
2022-10-24T10:57:50.791Z,1.20
2022-10-24T11:00:57.390Z,1.55
2022-10-24T11:04:03.818Z,0.93
2022-10-24T11:07:10.601Z,0.80
2022-10-24T11:10:16.520Z,0.95
2022-10-24T11:13:22.623Z,0.88
2022-10-24T11:16:27.338Z,1.25
2022-10-24T11:19:35.031Z,1.20
2022-10-24T11:22:39.725Z,0.88
2022-10-24T11:25:43.613Z,1.35
2022-10-24T11:28:50.382Z,0.85
2022-10-24T11:31:54.990Z,0.98
2022-10-24T11:35:00.787Z,0.80
2022-10-24T11:38:08.814Z,0.98
2022-10-24T11:41:21.673Z,0.98
2022-10-24T11:44:28.110Z,1.10
2022-10-24T11:47:39.450Z,0.95
2022-10-24T11:50:48.318Z,1.30
2022-10-24T11:53:53.469Z,1.08
2022-10-24T11:56:59.771Z,0.90
2022-10-24T12:00:03.014Z,1.40
2022-10-24T12:03:33.919Z,0.90
2022-10-24T12:06:43.278Z,0.88
2022-10-24T12:09:55.393Z,1.10
2022-10-24T12:13:11.302Z,0.90
2022-10-24T12:25:38.493Z,0.80
2022-10-24T12:28:43.583Z,1.00
2022-10-24T12:31:46.223Z,0.95
2022-10-24T12:35:12.223Z,0.80
2022-10-24T12:38:34.970Z,0.70
2022-10-24T12:42:03.027Z,0.70
2022-10-24T12:45:27.396Z,0.50
2022-10-24T12:48:31.412Z,1.08
2022-10-24T12:51:36.237Z,1.08
2022-10-24T12:54:39.639Z,0.85
2022-10-24T12:57:46.555Z,0.77
2022-10-24T13:00:54.058Z,0.85
2022-10-24T13:04:02.354Z,1.27
2022-10-24T13:07:14.149Z,0.73
2022-10-24T13:10:24.493Z,0.80
2022-10-24T13:13:44.203Z,0.52
2022-10-24T13:16:53.973Z,0.75
2022-10-24T13:20:04.040Z,0.52
2022-10-24T13:23:13.474Z,0.80
2022-10-24T13:26:45.813Z,0.73
2022-10-24T13:30:04.699Z,0.65
2022-10-24T13:33:31.099Z,0.90
2022-10-24T13:36:34.046Z,0.90
2022-10-24T13:39:40.406Z,0.65
2022-10-24T13:42:50.580Z,0.52
2022-10-24T13:45:58.487Z,0.85
2022-10-24T13:49:05.661Z,0.90
2022-10-24T13:52:11.363Z,0.82
2022-10-24T13:55:18.332Z,0.90
2022-10-24T13:58:49.523Z,0.63
2022-10-24T14:01:53.713Z,0.70
2022-10-24T14:05:42.015Z,0.73
2022-10-24T14:09:14.040Z,0.60
2022-10-24T14:12:26.494Z,0.80
2022-10-24T14:15:47.189Z,0.98
2022-10-24T14:19:27.043Z,0.77
2022-10-24T14:22:39.650Z,1.02
2022-10-24T14:25:42.527Z,1.05
2022-10-24T14:28:45.967Z,0.80
2022-10-24T14:31:54.948Z,1.17
2022-10-24T14:34:58.635Z,0.70
2022-10-24T14:38:07.387Z,0.65
2022-10-24T14:41:11.603Z,0.80
2022-10-24T14:44:16.030Z,0.80
2022-10-24T14:47:23.417Z,0.50
2022-10-24T14:50:39.460Z,0.70
2022-10-24T14:53:44.782Z,0.65
2022-10-24T14:56:47.374Z,1.02
2022-10-24T14:59:51.769Z,1.05
2022-10-24T15:02:55.063Z,1.02
2022-10-24T15:05:58.535Z,1.30
2022-10-24T15:09:04.903Z,1.35
2022-10-24T15:12:13.141Z,0.90
2022-10-24T15:15:27.679Z,0.98
2022-10-24T15:18:32.991Z,0.85
2022-10-24T15:21:36.793Z,1.15
2022-10-24T15:24:44.115Z,0.75
2022-10-24T15:27:47.267Z,0.88
2022-10-24T15:30:50.299Z,0.75
2022-10-24T15:33:52.698Z,0.68
2022-10-24T15:36:56.835Z,0.60
2022-10-24T15:40:28.268Z,0.60
2022-10-24T15:43:49.955Z,0.75
2022-10-24T15:46:54.008Z,0.70
2022-10-24T15:49:56.632Z,0.73
2022-10-24T15:52:59.605Z,0.70
2022-10-24T15:56:02.051Z,1.02
2022-10-24T15:59:05.487Z,0.80
2022-10-24T16:02:15.234Z,0.98
2022-10-24T16:05:18.947Z,1.15
2022-10-24T16:08:21.613Z,0.85
2022-10-24T16:11:24.022Z,0.63
2022-10-24T16:14:27.202Z,1.05
2022-10-24T16:17:31.006Z,1.10
2022-10-24T16:20:33.554Z,0.90
2022-10-24T16:23:36.032Z,1.00
2022-10-24T16:26:38.582Z,1.02
2022-10-24T16:29:40.982Z,1.55
2022-10-24T16:32:45.274Z,1.55
2022-10-24T16:35:48.156Z,1.27
2022-10-24T16:38:50.639Z,0.88
2022-10-24T16:41:55.217Z,0.95
2022-10-24T16:44:58.533Z,0.80
2022-10-24T16:48:02.278Z,0.85
2022-10-24T16:51:09.276Z,0.90
2022-10-24T16:54:11.683Z,0.93
2022-10-24T16:57:14.178Z,0.93
2022-10-24T17:00:19.828Z,1.00
2022-10-24T17:03:32.226Z,1.23
2022-10-24T17:06:34.613Z,0.82
2022-10-24T17:09:37.031Z,0.80
2022-10-24T17:12:40.170Z,1.40
2022-10-24T17:15:42.669Z,1.17
2022-10-24T17:19:04.667Z,0.88
2022-10-24T17:22:15.531Z,1.00
2022-10-24T17:25:20.527Z,0.90
2022-10-24T17:28:23.061Z,0.90
2022-10-24T17:31:25.654Z,0.80
2022-10-24T17:34:34.505Z,0.70
2022-10-24T17:37:42.334Z,0.80
2022-10-24T17:40:45.959Z,1.05
2022-10-24T17:43:48.712Z,1.08
2022-10-24T17:47:00.332Z,1.02
2022-10-24T17:50:04.243Z,1.20
2022-10-24T17:53:08.175Z,1.35
2022-10-24T17:59:14.628Z,1.38
2022-10-24T18:02:17.181Z,1.48
2022-10-24T18:05:22.162Z,1.48
2022-10-24T18:08:24.643Z,1.27
2022-10-24T18:11:27.329Z,1.50
2022-10-24T18:14:30.108Z,1.45
2022-10-24T18:17:33.105Z,1.08
2022-10-24T18:20:37.225Z,1.15
2022-10-24T18:23:40.442Z,0.90
2022-10-24T18:26:43.121Z,1.23
2022-10-24T18:29:45.815Z,1.92
2022-10-24T18:32:48.994Z,2.90
2022-10-24T18:35:53.368Z,2.78
2022-10-24T18:38:57.286Z,2.08
2022-10-24T18:42:25.010Z,1.70
2022-10-24T18:45:29.579Z,1.70
2022-10-24T18:48:35.673Z,1.60
2022-10-24T18:51:42.801Z,1.17
2022-10-24T19:03:10.165Z,1.55
2022-10-24T19:06:18.535Z,1.42
2022-10-24T19:09:24.542Z,1.10
2022-10-24T19:13:58.618Z,1.00
2022-10-24T19:17:17.889Z,1.10
2022-10-24T19:20:21.355Z,0.98
2022-10-24T19:23:24.622Z,1.17
2022-10-24T19:26:33.261Z,1.02
2022-10-24T19:30:00.450Z,0.77
2022-10-24T19:33:05.973Z,1.25
2022-10-24T19:39:36.049Z,1.00
2022-10-24T19:42:48.332Z,1.27
2022-10-24T19:49:31.941Z,0.85
2022-10-24T19:52:44.123Z,0.82
2022-10-24T19:55:57.794Z,0.88
2022-10-24T19:59:15.230Z,1.30
2022-10-24T20:02:32.459Z,0.93
2022-10-24T20:05:46.095Z,1.08
2022-10-24T20:09:01.925Z,1.27
2022-10-24T20:12:17.561Z,1.10
2022-10-24T20:15:38.726Z,0.77
2022-10-24T20:18:48.713Z,1.00
2022-10-24T20:22:04.238Z,1.10
2022-10-24T20:25:11.758Z,1.33
2022-10-24T20:28:24.297Z,1.38
2022-10-24T20:31:36.169Z,1.10
2022-10-24T20:34:47.121Z,1.52
2022-10-24T20:38:09.564Z,1.17
2022-10-24T20:41:18.670Z,1.08
2022-10-24T20:44:22.767Z,1.40
2022-10-24T20:47:30.019Z,1.10
2022-10-24T20:59:06.380Z,0.80
2022-10-24T21:02:25.264Z,1.38
2022-10-24T21:05:52.738Z,1.30
2022-10-24T21:08:58.164Z,0.95
2022-10-24T21:12:15.363Z,1.58
2022-10-24T21:15:19.343Z,0.85
2022-10-24T21:18:29.145Z,1.23
2022-10-24T21:21:51.680Z,1.08
2022-10-24T21:24:54.347Z,1.20
2022-10-24T21:28:01.958Z,1.35
2022-10-24T21:31:09.642Z,1.08
2022-10-24T21:34:12.338Z,1.48
2022-10-24T21:37:17.390Z,0.90
2022-10-24T21:40:42.366Z,1.10
2022-10-24T21:43:56.543Z,1.20
2022-10-24T21:46:59.773Z,0.90
2022-10-24T21:50:02.536Z,0.80
2022-10-24T21:53:27.603Z,0.82
2022-10-24T21:56:40.645Z,0.57
2022-10-24T21:59:46.913Z,1.40
2022-10-24T22:02:50.437Z,1.65
2022-10-24T22:05:54.756Z,2.65
2022-10-24T22:12:52.269Z,1.15
2022-10-24T22:16:32.171Z,1.02
2022-10-24T22:20:06.155Z,1.00
2022-10-24T22:23:37.793Z,1.10
2022-10-24T22:27:06.754Z,0.65
2022-10-24T22:30:26.758Z,0.90
2022-10-24T22:33:59.288Z,1.60
2022-10-24T22:37:12.952Z,0.95
2022-10-24T22:40:29.169Z,1.08
2022-10-24T22:43:37.982Z,0.73
2022-10-24T22:47:02.930Z,1.08
2022-10-24T22:50:17.467Z,0.90
2022-10-24T22:54:05.836Z,1.63
2022-10-24T22:57:15.936Z,0.90
2022-10-24T23:00:30.754Z,1.20
2022-10-24T23:04:08.093Z,1.00
2022-10-24T23:07:28.048Z,1.00
2022-10-24T23:10:41.059Z,1.00
2022-10-24T23:13:50.495Z,1.20
2022-10-24T23:17:11.773Z,1.20
2022-10-24T23:20:33.551Z,0.80
2022-10-24T23:23:42.128Z,0.95
2022-10-24T23:27:00.736Z,1.20
2022-10-24T23:30:11.055Z,0.70
2022-10-24T23:33:30.128Z,0.95
2022-10-24T23:36:36.161Z,1.08
2022-10-24T23:39:51.081Z,1.42
2022-10-24T23:43:02.284Z,0.85
2022-10-24T23:46:33.261Z,1.20
2022-10-24T23:50:03.913Z,1.00
2022-10-24T23:53:21.985Z,0.98
2022-10-24T23:56:37.950Z,0.65
2022-10-24T23:59:51.021Z,0.70
